createdAt,value
2017-05-08T00:01:01.125Z,85.40
2017-05-08T00:03:28.089Z,85.80
2017-05-08T00:05:55.075Z,84.60
2017-05-08T00:08:22.678Z,84.60
2017-05-08T00:10:49.675Z,84.60
2017-05-08T00:13:17.349Z,84.60
2017-05-08T00:15:44.280Z,84.60
2017-05-08T00:18:12.072Z,84.40
2017-05-08T00:20:39.050Z,83.50
2017-05-08T00:23:06.021Z,82.90
2017-05-08T00:25:33.759Z,82.80
2017-05-08T00:28:00.671Z,83.60
2017-05-08T00:30:27.624Z,83.80
2017-05-08T00:32:54.712Z,83.60
2017-05-08T00:35:21.706Z,83.50
2017-05-08T00:37:49.479Z,83.50
2017-05-08T00:40:16.486Z,82.70
2017-05-08T00:42:43.432Z,81.90
2017-05-08T00:45:10.420Z,81.60
2017-05-08T00:47:37.394Z,81.80
2017-05-08T00:50:04.411Z,82.00
2017-05-08T00:52:31.347Z,81.60
2017-05-08T00:54:58.359Z,81.10
2017-05-08T00:57:25.310Z,81.80
2017-05-08T00:59:52.254Z,82.00
2017-05-08T01:02:19.188Z,81.80
2017-05-08T01:04:46.180Z,82.00
2017-05-08T01:07:13.138Z,82.20
2017-05-08T01:09:40.092Z,82.30
2017-05-08T01:12:07.040Z,81.80
2017-05-08T01:14:33.996Z,81.40
2017-05-08T01:17:00.942Z,81.40
2017-05-08T01:19:27.916Z,81.80
2017-05-08T01:21:54.856Z,81.30
2017-05-08T01:24:21.798Z,81.30
2017-05-08T01:26:48.801Z,81.10
2017-05-08T01:29:15.744Z,81.00
2017-05-08T01:31:42.741Z,80.90
2017-05-08T01:34:09.701Z,80.80
2017-05-08T01:36:36.710Z,81.10
2017-05-08T01:39:03.669Z,81.10
2017-05-08T01:41:30.818Z,81.40
2017-05-08T01:43:57.813Z,80.70
2017-05-08T01:46:25.572Z,81.00
2017-05-08T01:48:52.517Z,80.80
2017-05-08T01:51:20.212Z,80.20
2017-05-08T01:53:47.125Z,80.30
2017-05-08T01:56:15.702Z,80.10
2017-05-08T01:58:42.628Z,80.60
2017-05-08T02:01:09.615Z,80.20
2017-05-08T02:03:36.585Z,81.50
2017-05-08T02:06:03.595Z,80.70
2017-05-08T02:08:31.248Z,79.10
2017-05-08T02:10:58.315Z,80.00
2017-05-08T02:13:26.043Z,79.40
2017-05-08T02:15:53.832Z,80.00
2017-05-08T02:18:20.791Z,80.40
2017-05-08T02:20:48.499Z,79.80
2017-05-08T02:23:15.545Z,79.80
2017-05-08T02:25:42.455Z,79.20
2017-05-08T02:28:09.464Z,79.40
2017-05-08T02:30:36.409Z,78.50
2017-05-08T02:33:03.531Z,79.30
2017-05-08T02:35:30.475Z,78.60
2017-05-08T02:37:57.526Z,78.60
2017-05-08T02:40:24.606Z,78.70
2017-05-08T02:42:52.459Z,78.90
2017-05-08T02:45:19.496Z,78.80
2017-05-08T02:47:46.446Z,79.40
2017-05-08T02:50:13.461Z,79.30
2017-05-08T02:52:40.611Z,78.80
2017-05-08T02:55:07.612Z,78.10
2017-05-08T02:57:34.607Z,78.40
2017-05-08T03:00:01.562Z,78.80
2017-05-08T03:02:28.518Z,79.30
2017-05-08T03:04:55.470Z,79.50
2017-05-08T03:07:22.425Z,80.00
2017-05-08T03:09:49.384Z,79.50
2017-05-08T03:12:16.343Z,78.80
2017-05-08T03:14:43.304Z,77.80
2017-05-08T03:17:11.027Z,78.20
2017-05-08T03:19:37.976Z,76.30
2017-05-08T03:22:04.931Z,77.20
2017-05-08T03:24:31.839Z,78.00
2017-05-08T03:26:58.795Z,77.60
2017-05-08T03:29:25.811Z,76.40
2017-05-08T03:31:52.801Z,76.90
2017-05-08T03:34:19.729Z,77.80
2017-05-08T03:36:46.671Z,78.30
2017-05-08T03:39:13.607Z,77.50
2017-05-08T03:41:40.579Z,77.10
2017-05-08T03:44:07.567Z,77.80
2017-05-08T03:46:34.570Z,78.00
2017-05-08T03:49:01.552Z,77.80
2017-05-08T03:51:30.160Z,77.10
2017-05-08T03:53:57.867Z,77.50
2017-05-08T03:56:24.842Z,77.20
2017-05-08T03:58:51.796Z,77.10
2017-05-08T04:01:18.745Z,77.50
2017-05-08T04:03:45.728Z,76.60
2017-05-08T04:06:12.659Z,76.30
2017-05-08T04:08:40.338Z,75.50
2017-05-08T04:11:07.267Z,75.40
2017-05-08T04:13:34.947Z,75.50
2017-05-08T04:16:02.007Z,75.40
2017-05-08T04:28:13.986Z,75.30
2017-05-08T04:30:41.881Z,74.30
2017-05-08T04:33:08.791Z,74.50
2017-05-08T04:35:35.878Z,75.00
2017-05-08T04:38:02.853Z,75.00
2017-05-08T04:40:29.806Z,74.70
2017-05-08T04:42:56.747Z,74.90
2017-05-08T04:45:23.741Z,73.70
2017-05-08T04:47:51.420Z,73.50
2017-05-08T04:50:19.203Z,73.90
2017-05-08T04:52:46.186Z,74.70
2017-05-08T04:55:13.115Z,74.80
2017-05-08T04:57:40.084Z,74.90
2017-05-08T05:00:07.040Z,74.20
2017-05-08T05:02:33.985Z,75.00
2017-05-08T05:05:00.992Z,74.80
2017-05-08T05:07:27.939Z,75.60
2017-05-08T05:09:55.800Z,73.90
2017-05-08T05:12:22.841Z,73.30
2017-05-08T05:14:49.799Z,73.50
2017-05-08T05:17:17.267Z,74.50
2017-05-08T05:19:44.264Z,74.50
2017-05-08T05:22:11.734Z,74.00
2017-05-08T05:24:38.838Z,74.60
2017-05-08T05:27:06.413Z,73.60
2017-05-08T05:29:33.410Z,73.30
2017-05-08T05:32:00.328Z,74.30
2017-05-08T05:34:26.543Z,74.30
2017-05-08T05:36:54.279Z,73.40
2017-05-08T05:39:21.230Z,72.60
2017-05-08T05:41:48.577Z,73.80
2017-05-08T05:44:16.441Z,73.20
2017-05-08T05:46:43.430Z,74.50
2017-05-08T05:49:11.184Z,72.90
2017-05-08T05:51:38.136Z,73.00
2017-05-08T05:54:05.861Z,72.20
2017-05-08T05:56:32.815Z,72.90
2017-05-08T05:58:59.863Z,73.80
2017-05-08T06:01:27.160Z,72.10
2017-05-08T06:03:54.872Z,74.20
2017-05-08T06:06:21.879Z,72.20
2017-05-08T06:08:48.869Z,71.90
2017-05-08T06:11:15.841Z,71.10
2017-05-08T06:13:42.859Z,71.80
2017-05-08T06:16:09.837Z,72.00
2017-05-08T06:18:36.801Z,70.30
2017-05-08T06:21:04.504Z,70.00
2017-05-08T06:23:31.492Z,68.80
2017-05-08T06:25:59.337Z,69.10
2017-05-08T06:28:26.293Z,70.00
2017-05-08T06:30:53.806Z,69.80
2017-05-08T06:33:20.743Z,68.60
2017-05-08T06:35:47.710Z,66.50
2017-05-08T06:38:14.728Z,68.20
2017-05-08T06:40:41.775Z,67.30
2017-05-08T06:43:09.557Z,68.70
2017-05-08T06:45:36.544Z,66.40
2017-05-08T06:48:18.576Z,67.60
2017-05-08T06:50:46.291Z,66.70
2017-05-08T06:53:13.231Z,65.80
2017-05-08T06:55:39.841Z,66.10
2017-05-08T06:58:06.870Z,67.70
2017-05-08T07:00:33.853Z,66.10
2017-05-08T07:03:00.853Z,65.30
2017-05-08T07:05:27.839Z,66.50
2017-05-08T07:07:55.446Z,66.30
2017-05-08T07:10:22.500Z,66.10
2017-05-08T07:12:50.361Z,67.60
2017-05-08T07:15:18.320Z,64.90
2017-05-08T07:17:45.318Z,66.20
2017-05-08T07:20:12.317Z,65.10
2017-05-08T07:22:39.667Z,64.70
2017-05-08T07:25:06.757Z,66.10
2017-05-08T07:27:34.445Z,64.60
2017-05-08T07:30:01.419Z,66.30
2017-05-08T07:32:28.447Z,65.80
2017-05-08T07:34:55.377Z,64.80
2017-05-08T07:37:22.648Z,64.90
2017-05-08T07:39:50.315Z,64.80
2017-05-08T07:42:17.292Z,66.70
2017-05-08T07:44:44.246Z,66.60
2017-05-08T07:47:11.230Z,66.50
2017-05-08T07:49:38.149Z,66.40
2017-05-08T07:52:06.311Z,66.40
2017-05-08T07:54:33.351Z,67.60
2017-05-08T07:57:00.308Z,66.60
2017-05-08T07:59:28.071Z,67.50
2017-05-08T08:01:55.066Z,66.60
2017-05-08T08:04:22.001Z,67.30
2017-05-08T08:06:49.743Z,67.60
2017-05-08T08:09:17.463Z,66.80
2017-05-08T08:11:45.513Z,67.30
2017-05-08T08:14:13.176Z,66.90
2017-05-08T08:16:40.144Z,67.50
2017-05-08T08:19:07.459Z,67.70
2017-05-08T08:21:35.272Z,66.60
2017-05-08T08:24:03.330Z,67.60
2017-05-08T08:26:30.293Z,66.50
2017-05-08T08:28:57.247Z,66.90
2017-05-08T08:31:24.607Z,68.00
2017-05-08T08:33:51.575Z,67.10
2017-05-08T08:36:19.338Z,66.30
2017-05-08T08:38:46.354Z,66.20
2017-05-08T08:50:58.365Z,64.90
2017-05-08T08:53:26.060Z,66.20
2017-05-08T08:55:53.661Z,65.60
2017-05-08T08:58:20.671Z,63.10
2017-05-08T09:00:49.070Z,63.70
2017-05-08T09:03:16.039Z,63.50
2017-05-08T09:05:42.981Z,63.40
2017-05-08T09:08:10.978Z,66.20
2017-05-08T09:10:38.790Z,63.50
2017-05-08T09:13:05.775Z,67.30
2017-05-08T09:15:32.806Z,62.40
2017-05-08T09:17:59.840Z,61.30
2017-05-08T09:20:26.899Z,61.50
2017-05-08T09:22:53.950Z,61.50
2017-05-08T09:25:20.903Z,60.70
2017-05-08T09:27:49.087Z,59.10
2017-05-08T09:30:16.107Z,63.00
2017-05-08T09:32:43.070Z,60.10
2017-05-08T09:35:10.005Z,59.40
2017-05-08T09:37:37.020Z,59.10
2017-05-08T09:40:04.090Z,58.10
2017-05-08T09:42:31.050Z,56.10
2017-05-08T09:44:58.770Z,58.60
2017-05-08T09:47:26.286Z,58.40
2017-05-08T09:49:53.263Z,57.90
2017-05-08T09:52:20.946Z,58.60
2017-05-08T09:54:48.662Z,58.00
2017-05-08T09:57:16.703Z,58.50
2017-05-08T09:59:44.065Z,58.50
2017-05-08T10:02:11.027Z,59.70
2017-05-08T10:04:38.028Z,59.10
2017-05-08T10:07:05.003Z,59.20
2017-05-08T10:09:32.055Z,58.80
2017-05-08T10:12:00.077Z,58.70
2017-05-08T10:14:27.869Z,58.40
2017-05-08T10:16:54.821Z,57.40
2017-05-08T10:19:21.784Z,57.70
2017-05-08T10:21:49.549Z,57.30
2017-05-08T10:24:16.493Z,56.40
2017-05-08T10:26:43.425Z,54.80
2017-05-08T10:29:10.431Z,53.90
2017-05-08T10:31:38.175Z,54.20
2017-05-08T10:34:05.184Z,55.80
2017-05-08T10:36:32.120Z,56.20
2017-05-08T10:38:59.088Z,58.40
2017-05-08T10:41:26.014Z,56.00
2017-05-08T10:43:53.029Z,56.10
2017-05-08T10:46:20.775Z,55.60
2017-05-08T10:48:47.827Z,55.30
2017-05-08T10:51:16.299Z,53.60
2017-05-08T10:53:43.303Z,57.40
2017-05-08T10:56:10.371Z,55.80
2017-05-08T10:58:37.399Z,57.20
2017-05-08T11:01:04.378Z,56.70
2017-05-08T11:03:31.393Z,59.70
2017-05-08T11:05:58.410Z,59.00
2017-05-08T11:08:26.125Z,58.60
2017-05-08T11:10:53.069Z,59.40
2017-05-08T11:13:20.085Z,58.90
2017-05-08T11:15:47.095Z,58.50
2017-05-08T11:18:14.119Z,59.20
2017-05-08T11:20:41.168Z,60.50
2017-05-08T11:23:08.203Z,60.50
2017-05-08T11:25:35.325Z,59.20
2017-05-08T11:28:02.336Z,59.20
2017-05-08T11:30:29.388Z,60.50
2017-05-08T11:32:56.344Z,59.80
2017-05-08T11:35:24.176Z,61.10
2017-05-08T11:37:51.136Z,59.70
2017-05-08T11:40:18.129Z,60.00
2017-05-08T11:42:45.084Z,60.70
2017-05-08T11:45:12.084Z,61.10
2017-05-08T11:47:39.117Z,60.60
2017-05-08T11:50:06.079Z,61.10
2017-05-08T11:52:34.020Z,61.50
2017-05-08T11:55:01.325Z,62.40
2017-05-08T11:57:29.036Z,63.50
2017-05-08T11:59:55.965Z,62.60
2017-05-08T12:02:22.898Z,62.50
2017-05-08T12:04:49.947Z,63.40
2017-05-08T12:07:16.991Z,62.60
2017-05-08T12:09:43.924Z,64.00
2017-05-08T12:12:12.407Z,62.70
2017-05-08T12:14:40.080Z,62.80
2017-05-08T12:17:07.054Z,66.80
2017-05-08T12:19:34.020Z,61.90
2017-05-08T12:22:01.046Z,60.50
2017-05-08T12:24:27.998Z,59.10
2017-05-08T12:26:54.943Z,57.70
2017-05-08T12:29:23.846Z,56.80
2017-05-08T12:31:50.957Z,57.10
2017-05-08T12:34:17.881Z,56.50
2017-05-08T12:36:45.572Z,55.80
2017-05-08T12:39:12.587Z,57.20
2017-05-08T12:41:40.273Z,56.90
2017-05-08T12:44:08.944Z,57.90
2017-05-08T12:46:36.652Z,58.40
2017-05-08T12:49:04.409Z,57.90
2017-05-08T12:51:31.365Z,56.90
2017-05-08T12:53:58.754Z,57.00
2017-05-08T12:56:25.730Z,57.50
2017-05-08T12:58:53.413Z,56.90
2017-05-08T13:01:20.387Z,56.20
2017-05-08T13:03:47.546Z,56.20
2017-05-08T13:06:14.500Z,56.00
2017-05-08T13:08:41.513Z,55.60
2017-05-08T13:11:08.448Z,56.20
2017-05-08T13:13:35.429Z,55.10
2017-05-08T13:16:02.439Z,54.40
2017-05-08T13:18:29.367Z,55.20
2017-05-08T13:20:57.070Z,53.90
2017-05-08T13:23:24.047Z,53.60
2017-05-08T13:25:51.033Z,53.10
2017-05-08T13:28:17.993Z,53.40
2017-05-08T13:30:45.027Z,53.40
2017-05-08T13:33:11.979Z,53.40
2017-05-08T13:35:38.916Z,52.30
2017-05-08T13:38:05.879Z,52.80
2017-05-08T13:40:32.861Z,52.30
2017-05-08T13:42:59.828Z,53.60
2017-05-08T13:45:27.712Z,51.70
2017-05-08T13:47:55.432Z,51.30
2017-05-08T13:50:22.427Z,52.50
2017-05-08T13:52:50.124Z,52.90
2017-05-08T13:55:17.067Z,52.80
2017-05-08T13:57:44.028Z,51.90
2017-05-08T14:00:10.997Z,53.60
2017-05-08T14:02:37.996Z,52.90
2017-05-08T14:05:04.967Z,52.10
2017-05-08T14:07:31.894Z,51.20
2017-05-08T14:09:58.830Z,51.90
2017-05-08T14:12:26.013Z,50.40
2017-05-08T14:14:53.062Z,50.60
2017-05-08T14:17:20.077Z,51.40
2017-05-08T14:19:47.049Z,51.40
2017-05-08T14:22:14.027Z,51.30
2017-05-08T14:24:40.989Z,52.00
2017-05-08T14:27:07.932Z,51.30
2017-05-08T14:29:34.855Z,49.40
2017-05-08T14:32:01.864Z,49.70
2017-05-08T14:34:28.864Z,50.10
2017-05-08T14:36:55.788Z,50.20
2017-05-08T14:39:22.729Z,49.60
2017-05-08T14:41:49.700Z,48.30
2017-05-08T14:44:16.624Z,49.40
2017-05-08T14:46:43.611Z,48.20
2017-05-08T14:49:11.299Z,48.90
2017-05-08T14:51:38.235Z,49.20
2017-05-08T14:54:05.170Z,49.20
2017-05-08T14:56:32.833Z,48.40
2017-05-08T14:59:00.487Z,49.00
2017-05-08T15:01:28.149Z,47.80
2017-05-08T15:03:55.882Z,48.40
2017-05-08T15:06:22.802Z,48.50
2017-05-08T15:08:49.786Z,48.30
2017-05-08T15:11:16.732Z,48.80
2017-05-08T15:13:43.657Z,48.20
2017-05-08T15:16:10.643Z,48.80
2017-05-08T15:18:38.357Z,48.30
2017-05-08T15:21:05.309Z,48.10
2017-05-08T15:23:32.360Z,47.90
2017-05-08T15:25:59.316Z,46.90
2017-05-08T15:28:26.299Z,46.60
2017-05-08T15:30:53.954Z,46.10
2017-05-08T15:33:20.920Z,46.70
2017-05-08T15:35:48.625Z,47.00
2017-05-08T15:38:15.559Z,46.90
2017-05-08T15:40:42.510Z,46.80
2017-05-08T15:43:09.500Z,46.90
2017-05-08T15:45:37.201Z,46.10
2017-05-08T15:48:04.155Z,46.20
2017-05-08T15:50:32.175Z,46.10
2017-05-08T15:52:59.107Z,46.20
2017-05-08T15:55:26.304Z,46.70
2017-05-08T15:57:53.263Z,47.40
2017-05-08T16:00:20.229Z,47.40
2017-05-08T16:02:47.197Z,47.80
2017-05-08T16:05:14.195Z,48.40
2017-05-08T16:07:41.166Z,48.90
2017-05-08T16:10:08.153Z,49.50
2017-05-08T16:12:35.055Z,49.10
2017-05-08T16:15:01.977Z,49.30
2017-05-08T16:17:28.968Z,49.30
2017-05-08T16:19:55.876Z,50.30
2017-05-08T16:22:22.829Z,50.80
2017-05-08T16:24:49.869Z,51.20
2017-05-08T16:27:16.816Z,51.20
2017-05-08T16:29:43.851Z,51.70
2017-05-08T16:32:10.815Z,51.50
2017-05-08T16:34:38.372Z,52.00
2017-05-08T16:37:05.356Z,51.80
2017-05-08T16:52:34.067Z,52.80
2017-05-08T16:55:01.737Z,52.90
2017-05-08T16:57:29.448Z,53.10
2017-05-08T16:59:56.459Z,53.40
2017-05-08T17:02:23.683Z,54.30
2017-05-08T17:04:50.643Z,55.20
2017-05-08T17:07:18.323Z,55.60
2017-05-08T17:09:45.417Z,54.60
2017-05-08T17:12:12.380Z,54.60
2017-05-08T17:14:39.667Z,54.20
2017-05-08T17:17:06.643Z,54.30
2017-05-08T17:19:33.599Z,54.00
2017-05-08T17:22:00.596Z,54.20
2017-05-08T17:24:28.269Z,54.30
2017-05-08T17:26:55.220Z,54.70
2017-05-08T17:29:22.179Z,54.90
2017-05-08T17:31:49.123Z,55.10
2017-05-08T17:34:16.089Z,55.10
2017-05-08T17:36:43.025Z,54.60
2017-05-08T17:39:09.961Z,54.90
2017-05-08T17:41:37.252Z,54.90
2017-05-08T17:44:04.155Z,55.40
2017-05-08T17:46:31.327Z,55.60
2017-05-08T17:48:58.308Z,54.90
2017-05-08T17:51:25.999Z,55.50
2017-05-08T17:53:53.714Z,55.30
2017-05-08T17:56:21.812Z,55.70
2017-05-08T17:58:48.745Z,56.00
2017-05-08T18:01:15.688Z,55.80
2017-05-08T18:03:42.922Z,55.90
2017-05-08T18:06:10.625Z,55.50
2017-05-08T18:08:37.551Z,56.10
2017-05-08T18:11:04.561Z,55.40
2017-05-08T18:13:31.556Z,55.60
2017-05-08T18:15:59.464Z,55.50
2017-05-08T18:18:26.447Z,55.60
2017-05-08T18:20:53.394Z,55.60
2017-05-08T18:23:20.507Z,55.80
2017-05-08T18:25:47.435Z,55.50
2017-05-08T18:28:15.305Z,55.70
2017-05-08T18:30:43.104Z,56.00
2017-05-08T18:33:10.110Z,56.50
2017-05-08T18:35:38.011Z,56.50
2017-05-08T18:38:05.061Z,56.50
2017-05-08T18:40:32.032Z,56.60
2017-05-08T18:42:59.048Z,56.60
2017-05-08T18:45:26.030Z,56.70
2017-05-08T18:47:52.984Z,56.60
2017-05-08T18:50:20.020Z,56.60
2017-05-08T18:52:46.978Z,56.50
2017-05-08T18:55:13.932Z,56.50
2017-05-08T18:57:40.947Z,56.50
2017-05-08T19:00:07.934Z,56.50
2017-05-08T19:02:34.926Z,56.60
2017-05-08T19:05:01.989Z,57.20
2017-05-08T19:07:29.021Z,57.00
2017-05-08T19:09:56.020Z,58.10
2017-05-08T19:12:23.007Z,57.70
2017-05-08T19:14:49.970Z,57.70
2017-05-08T19:17:17.011Z,58.20
2017-05-08T19:19:43.976Z,57.80
2017-05-08T19:22:10.954Z,57.70
2017-05-08T19:24:37.973Z,58.00
2017-05-08T19:27:04.935Z,58.10
2017-05-08T19:29:31.908Z,57.70
2017-05-08T19:31:59.756Z,58.50
2017-05-08T19:34:26.733Z,57.50
2017-05-08T19:36:54.412Z,57.40
2017-05-08T19:39:21.510Z,57.30
2017-05-08T19:41:48.480Z,57.20
2017-05-08T19:44:16.184Z,57.60
2017-05-08T19:46:43.658Z,57.50
2017-05-08T19:49:10.693Z,58.00
2017-05-08T19:51:37.910Z,59.80
2017-05-08T19:54:05.640Z,61.40
2017-05-08T19:56:32.619Z,62.30
2017-05-08T19:59:00.478Z,63.20
2017-05-08T20:01:28.156Z,64.00
2017-05-08T20:03:55.865Z,64.90
2017-05-08T20:06:25.331Z,65.30
2017-05-08T20:08:53.606Z,65.70
2017-05-08T20:11:20.606Z,66.30
2017-05-08T20:13:47.607Z,66.80
2017-05-08T20:16:14.561Z,66.80
2017-05-08T20:18:41.688Z,66.90
2017-05-08T20:21:09.427Z,67.40
2017-05-08T20:23:37.178Z,67.70
2017-05-08T20:26:04.190Z,68.50
2017-05-08T20:28:31.976Z,68.90
2017-05-08T20:30:58.928Z,69.10
2017-05-08T20:33:27.298Z,69.60
2017-05-08T20:35:54.829Z,69.80
2017-05-08T20:38:22.763Z,70.00
2017-05-08T20:40:49.961Z,69.80
2017-05-08T20:43:16.898Z,70.50
2017-05-08T20:45:43.906Z,69.90
2017-05-08T20:48:10.890Z,70.30
2017-05-08T20:50:37.869Z,70.20
2017-05-08T20:53:05.080Z,70.10
2017-05-08T20:55:32.838Z,70.10
2017-05-08T20:58:00.564Z,70.00
2017-05-08T21:00:27.484Z,69.90
2017-05-08T21:02:55.336Z,69.50
2017-05-08T21:15:08.332Z,69.60
2017-05-08T21:17:35.314Z,69.30
2017-05-08T21:20:02.303Z,69.40
2017-05-08T21:22:28.898Z,68.80
2017-05-08T21:24:55.866Z,69.50
2017-05-08T21:27:22.800Z,70.10
2017-05-08T21:29:49.788Z,69.40
2017-05-08T21:32:16.740Z,69.50
2017-05-08T21:34:44.296Z,69.50
2017-05-08T21:37:11.239Z,69.00
2017-05-08T21:39:38.195Z,69.50
2017-05-08T21:42:05.142Z,69.90
2017-05-08T21:44:32.148Z,69.70
2017-05-08T21:46:59.102Z,69.50
2017-05-08T21:49:26.886Z,69.60
2017-05-08T21:51:54.719Z,69.80
2017-05-08T21:54:21.752Z,69.50
2017-05-08T21:56:48.801Z,69.50
2017-05-08T21:59:15.832Z,69.60
2017-05-08T22:01:42.793Z,69.70
2017-05-08T22:04:09.760Z,69.60
2017-05-08T22:06:36.745Z,69.80
2017-05-08T22:09:03.744Z,69.80
2017-05-08T22:11:30.705Z,69.70
2017-05-08T22:13:57.622Z,69.30
2017-05-08T22:16:25.505Z,69.60
2017-05-08T22:18:52.523Z,70.00
2017-05-08T22:21:19.474Z,70.30
2017-05-08T22:23:46.462Z,69.80
2017-05-08T22:26:14.181Z,70.30
2017-05-08T22:28:41.132Z,70.10
2017-05-08T22:31:08.060Z,70.20
2017-05-08T22:33:35.103Z,70.20
2017-05-08T22:36:02.072Z,70.10
2017-05-08T22:38:29.100Z,70.10
2017-05-08T22:40:56.164Z,70.40
2017-05-08T22:43:23.148Z,70.50
2017-05-08T22:45:50.897Z,70.20
2017-05-08T22:48:17.941Z,70.50
2017-05-08T22:50:44.867Z,70.50
2017-05-08T22:53:11.837Z,70.60
2017-05-08T22:55:38.791Z,70.40
2017-05-08T22:58:06.678Z,70.90
2017-05-08T23:00:34.420Z,70.60
2017-05-08T23:03:01.360Z,70.60
2017-05-08T23:05:28.346Z,70.90
2017-05-08T23:07:56.246Z,70.90
2017-05-08T23:10:23.209Z,70.80
2017-05-08T23:12:51.051Z,71.30
2017-05-08T23:15:18.040Z,71.20
2017-05-08T23:17:45.031Z,72.00
2017-05-08T23:20:11.993Z,71.60
2017-05-08T23:22:39.508Z,71.50
2017-05-08T23:25:06.484Z,71.20
2017-05-08T23:27:33.390Z,71.20
2017-05-08T23:30:00.361Z,71.70
2017-05-08T23:32:27.299Z,71.60
2017-05-08T23:34:54.261Z,71.70
2017-05-08T23:37:21.291Z,71.70
2017-05-08T23:39:48.969Z,71.60
2017-05-08T23:42:15.911Z,71.60
2017-05-08T23:44:43.588Z,71.40
2017-05-08T23:47:10.527Z,71.50
2017-05-08T23:49:37.491Z,70.90
2017-05-08T23:52:04.444Z,71.60
2017-05-08T23:54:31.382Z,72.30
2017-05-08T23:56:58.325Z,72.40
2017-05-08T23:59:25.271Z,73.00
